createdAt,value
2022-08-29T00:02:47.228Z,14.21
2022-08-29T00:05:55.014Z,14.13
2022-08-29T00:09:02.794Z,14.07
2022-08-29T00:12:10.468Z,14.06
2022-08-29T00:15:18.269Z,14.01
2022-08-29T00:18:26.081Z,13.94
2022-08-29T00:21:33.982Z,13.88
2022-08-29T00:24:41.852Z,13.84
2022-08-29T00:27:50.210Z,13.87
2022-08-29T00:30:59.394Z,13.87
2022-08-29T00:34:07.174Z,13.77
2022-08-29T00:37:15.360Z,13.71
2022-08-29T00:40:23.577Z,13.74
2022-08-29T00:43:31.387Z,13.76
2022-08-29T00:46:38.985Z,13.74
2022-08-29T00:49:47.180Z,13.76
2022-08-29T00:52:55.029Z,13.74
2022-08-29T00:56:02.689Z,13.71
2022-08-29T00:59:10.588Z,13.70
2022-08-29T01:02:18.019Z,13.61
2022-08-29T01:05:26.092Z,13.55
2022-08-29T01:08:34.162Z,13.51
2022-08-29T01:11:42.426Z,13.47
2022-08-29T01:14:50.849Z,13.43
2022-08-29T01:17:58.695Z,13.40
2022-08-29T01:21:06.676Z,13.36
2022-08-29T01:24:14.704Z,13.38
2022-08-29T01:27:22.017Z,13.33
2022-08-29T01:30:29.688Z,13.29
2022-08-29T01:33:37.528Z,13.29
2022-08-29T01:36:45.301Z,13.29
2022-08-29T01:39:53.789Z,13.29
2022-08-29T01:43:01.642Z,13.30
2022-08-29T01:46:09.534Z,13.32
2022-08-29T01:49:16.861Z,13.33
2022-08-29T01:52:25.142Z,13.38
2022-08-29T01:55:32.562Z,13.41
2022-08-29T01:58:40.335Z,13.43
2022-08-29T02:01:48.198Z,13.49
2022-08-29T02:04:56.057Z,13.52
2022-08-29T02:08:03.865Z,13.56
2022-08-29T02:11:12.059Z,13.61
2022-08-29T02:14:19.902Z,13.62
2022-08-29T02:17:28.086Z,13.61
2022-08-29T02:20:36.280Z,13.59
2022-08-29T02:23:43.661Z,13.55
2022-08-29T02:26:51.451Z,13.51
2022-08-29T02:29:59.383Z,13.49
2022-08-29T02:33:06.754Z,13.51
2022-08-29T02:36:15.394Z,13.51
2022-08-29T02:39:23.175Z,13.51
2022-08-29T02:42:30.725Z,13.52
2022-08-29T02:45:38.856Z,13.59
2022-08-29T02:48:49.251Z,13.71
2022-08-29T02:51:51.606Z,13.80
2022-08-29T02:55:00.123Z,13.91
2022-08-29T02:58:08.289Z,13.94
2022-08-29T03:01:16.391Z,13.98
2022-08-29T03:04:23.961Z,14.01
2022-08-29T03:07:31.502Z,13.99
2022-08-29T03:10:38.993Z,13.98
2022-08-29T03:13:46.674Z,14.01
2022-08-29T03:16:54.012Z,14.06
2022-08-29T03:20:01.965Z,14.10
2022-08-29T03:23:09.826Z,14.14
2022-08-29T03:26:17.647Z,14.17
2022-08-29T03:29:25.839Z,14.21
2022-08-29T03:32:33.565Z,14.28
2022-08-29T03:35:41.316Z,14.34
2022-08-29T03:38:48.981Z,14.39
2022-08-29T03:41:56.995Z,14.42
2022-08-29T03:45:05.067Z,14.47
2022-08-29T03:48:12.734Z,14.50
2022-08-29T03:51:20.730Z,14.57
2022-08-29T03:54:28.556Z,14.65
2022-08-29T03:57:36.334Z,14.74
2022-08-29T04:00:44.005Z,14.78
2022-08-29T04:03:51.439Z,14.83
2022-08-29T04:06:59.684Z,14.87
2022-08-29T04:10:07.582Z,14.91
2022-08-29T04:13:15.349Z,14.93
2022-08-29T04:16:23.593Z,14.95
2022-08-29T04:19:31.340Z,15.03
2022-08-29T04:22:39.009Z,15.11
2022-08-29T04:25:47.122Z,15.13
2022-08-29T04:28:54.373Z,15.20
2022-08-29T04:32:02.324Z,15.21
2022-08-29T04:35:10.302Z,15.24
2022-08-29T04:38:17.656Z,15.21
2022-08-29T04:41:25.743Z,15.20
2022-08-29T04:44:34.086Z,15.21
2022-08-29T04:47:41.498Z,15.24
2022-08-29T04:50:49.459Z,15.28
2022-08-29T04:53:57.158Z,15.28
2022-08-29T04:57:04.978Z,15.33
2022-08-29T05:00:13.086Z,15.30
2022-08-29T05:03:20.860Z,15.33
2022-08-29T05:06:28.656Z,15.39
2022-08-29T05:09:36.773Z,15.39
2022-08-29T05:12:44.545Z,15.39
2022-08-29T05:15:52.281Z,15.43
2022-08-29T05:18:59.984Z,15.51
2022-08-29T05:22:08.277Z,15.52
2022-08-29T05:25:18.547Z,15.57
2022-08-29T05:28:15.916Z,15.60
2022-08-29T05:31:24.376Z,15.61
2022-08-29T05:34:35.079Z,15.56
2022-08-29T05:37:31.891Z,15.59
2022-08-29T05:40:39.736Z,15.67
2022-08-29T05:43:47.133Z,15.72
2022-08-29T05:46:55.364Z,15.78
2022-08-29T05:50:03.012Z,15.85
2022-08-29T05:53:10.744Z,15.86
2022-08-29T05:56:18.907Z,15.89
2022-08-29T05:59:26.735Z,16.01
2022-08-29T06:02:34.591Z,16.16
2022-08-29T06:05:42.803Z,16.34
2022-08-29T06:08:50.369Z,16.41
2022-08-29T06:11:58.060Z,16.59
2022-08-29T06:15:06.059Z,16.77
2022-08-29T06:18:13.501Z,16.86
2022-08-29T06:21:21.635Z,17.06
2022-08-29T06:24:29.654Z,17.08
2022-08-29T06:27:37.157Z,16.99
2022-08-29T06:30:45.849Z,16.98
2022-08-29T06:33:54.439Z,16.88
2022-08-29T06:37:02.409Z,16.95
2022-08-29T06:40:11.103Z,17.11
2022-08-29T06:43:19.347Z,17.11
2022-08-29T06:46:27.617Z,17.22
2022-08-29T06:49:36.554Z,17.29
2022-08-29T06:52:47.070Z,17.38
2022-08-29T06:55:45.402Z,17.41
2022-08-29T06:58:55.405Z,17.36
2022-08-29T07:02:03.362Z,17.38
2022-08-29T07:05:11.885Z,17.26
2022-08-29T07:08:20.216Z,17.20
2022-08-29T07:11:28.690Z,17.22
2022-08-29T07:14:37.512Z,17.25
2022-08-29T07:17:45.651Z,17.26
2022-08-29T07:20:53.462Z,17.28
2022-08-29T07:24:01.501Z,17.38
2022-08-29T07:27:08.995Z,17.47
2022-08-29T07:30:16.735Z,17.55
2022-08-29T07:33:24.888Z,17.74
2022-08-29T07:36:34.317Z,18.00
2022-08-29T07:39:42.239Z,18.21
2022-08-29T07:42:50.058Z,18.40
2022-08-29T07:45:57.817Z,18.65
2022-08-29T07:49:05.704Z,18.70
2022-08-29T07:52:13.834Z,18.68
2022-08-29T07:55:21.962Z,18.61
2022-08-29T07:58:29.914Z,18.40
2022-08-29T08:01:37.795Z,18.37
2022-08-29T08:04:45.565Z,18.34
2022-08-29T08:07:55.610Z,18.58
2022-08-29T08:10:53.378Z,18.64
2022-08-29T08:14:01.544Z,18.76
2022-08-29T08:17:09.561Z,18.91
2022-08-29T08:20:18.108Z,19.13
2022-08-29T08:23:26.139Z,19.33
2022-08-29T08:26:34.044Z,19.43
2022-08-29T08:29:42.454Z,19.15
2022-08-29T08:32:54.500Z,19.05
2022-08-29T08:35:51.916Z,19.18
2022-08-29T08:38:59.848Z,19.47
2022-08-29T08:42:07.189Z,19.60
2022-08-29T08:45:15.410Z,19.93
2022-08-29T08:48:23.264Z,19.98
2022-08-29T08:51:31.119Z,20.00
2022-08-29T08:54:39.502Z,20.08
2022-08-29T08:57:47.084Z,20.06
2022-08-29T09:00:55.721Z,19.98
2022-08-29T09:04:03.746Z,20.10
2022-08-29T09:07:11.645Z,20.05
2022-08-29T09:10:20.215Z,19.87
2022-08-29T09:13:27.819Z,19.86
2022-08-29T09:16:36.000Z,19.80
2022-08-29T09:19:44.392Z,19.97
2022-08-29T09:22:52.022Z,20.08
2022-08-29T09:25:59.985Z,20.15
2022-08-29T09:29:07.925Z,20.25
2022-08-29T09:32:21.631Z,20.33
2022-08-29T09:35:20.037Z,20.30
2022-08-29T09:38:28.117Z,20.38
2022-08-29T09:41:36.000Z,20.38
2022-08-29T09:44:44.092Z,20.28
2022-08-29T09:47:52.437Z,20.23
2022-08-29T09:51:00.344Z,20.49
2022-08-29T09:54:08.324Z,20.77
2022-08-29T09:57:16.323Z,20.93
2022-08-29T10:00:23.927Z,20.96
2022-08-29T10:03:34.570Z,21.05
2022-08-29T10:06:47.261Z,21.09
2022-08-29T10:09:45.192Z,21.09
2022-08-29T10:12:53.433Z,21.27
2022-08-29T10:16:01.692Z,21.54
2022-08-29T10:19:09.403Z,21.74
2022-08-29T10:22:17.765Z,21.90
2022-08-29T10:25:25.782Z,21.94
2022-08-29T10:28:33.737Z,21.88
2022-08-29T10:31:41.915Z,21.95
2022-08-29T10:34:49.948Z,22.09
2022-08-29T10:37:58.036Z,22.04
2022-08-29T10:41:06.073Z,22.07
2022-08-29T10:44:13.982Z,22.14
2022-08-29T10:47:21.954Z,22.01
2022-08-29T10:50:45.855Z,22.29
2022-08-29T10:53:35.349Z,22.53
2022-08-29T10:56:43.547Z,22.89
2022-08-29T10:59:51.961Z,23.31
2022-08-29T11:03:00.062Z,23.71
2022-08-29T11:06:08.195Z,23.55
2022-08-29T11:09:16.423Z,23.26
2022-08-29T11:12:24.163Z,23.22
2022-08-29T11:15:32.515Z,23.43
2022-08-29T11:18:40.613Z,23.24
2022-08-29T11:21:48.737Z,22.99
2022-08-29T11:24:57.036Z,23.14
2022-08-29T11:28:04.638Z,23.20
2022-08-29T11:31:13.181Z,23.39
2022-08-29T11:34:21.742Z,23.67
2022-08-29T11:37:29.287Z,24.04
2022-08-29T11:43:43.367Z,24.13
2022-08-29T11:46:53.466Z,23.85
2022-08-29T11:49:54.319Z,24.00
2022-08-29T11:53:02.459Z,24.17
2022-08-29T11:56:10.540Z,24.04
2022-08-29T11:59:18.479Z,24.00
2022-08-29T12:02:26.723Z,24.14
2022-08-29T12:05:34.794Z,24.05
2022-08-29T12:08:42.745Z,23.86
2022-08-29T12:11:50.996Z,23.52
2022-08-29T12:14:58.248Z,23.22
2022-08-29T12:18:06.559Z,23.34
2022-08-29T12:21:14.841Z,23.64
2022-08-29T12:24:22.232Z,24.01
2022-08-29T12:27:30.473Z,24.52
2022-08-29T12:30:38.294Z,24.71
2022-08-29T12:33:45.986Z,24.87
2022-08-29T12:36:54.457Z,25.12
2022-08-29T12:40:02.472Z,25.30
2022-08-29T12:43:10.349Z,25.65
2022-08-29T12:46:17.976Z,25.54
2022-08-29T12:49:26.074Z,25.09
2022-08-29T12:52:33.674Z,24.92
2022-08-29T12:55:41.605Z,24.88
2022-08-29T12:58:49.794Z,25.13
2022-08-29T13:01:57.209Z,25.15
2022-08-29T13:05:05.558Z,24.90
2022-08-29T13:08:13.681Z,24.26
2022-08-29T13:11:21.664Z,23.94
2022-08-29T13:14:30.631Z,23.61
2022-08-29T13:17:39.123Z,23.31
2022-08-29T13:20:46.555Z,23.50
2022-08-29T13:23:54.665Z,23.87
2022-08-29T13:27:04.745Z,24.22
2022-08-29T13:30:02.978Z,24.38
2022-08-29T13:33:10.734Z,24.27
2022-08-29T13:36:18.330Z,24.37
2022-08-29T13:39:25.910Z,24.56
2022-08-29T13:42:33.682Z,24.47
2022-08-29T13:45:41.523Z,24.42
2022-08-29T13:48:49.135Z,24.42
2022-08-29T13:51:57.267Z,24.37
2022-08-29T13:55:05.104Z,24.13
2022-08-29T13:58:12.812Z,23.90
2022-08-29T14:04:38.074Z,23.77
2022-08-29T14:07:31.296Z,23.97
2022-08-29T14:10:39.483Z,24.05
2022-08-29T14:13:46.827Z,23.95
2022-08-29T14:16:55.007Z,24.10
2022-08-29T14:20:03.065Z,24.42
2022-08-29T14:23:10.386Z,24.83
2022-08-29T14:26:18.955Z,25.19
2022-08-29T14:29:29.989Z,25.06
2022-08-29T14:32:27.759Z,24.87
2022-08-29T14:35:35.812Z,25.02
2022-08-29T14:38:39.104Z,24.67
2022-08-29T14:41:47.227Z,24.50
2022-08-29T14:44:54.853Z,24.56
2022-08-29T14:48:02.759Z,24.56
2022-08-29T14:51:10.410Z,24.44
2022-08-29T14:54:18.246Z,24.37
2022-08-29T14:57:26.220Z,24.45
2022-08-29T15:00:34.045Z,24.59
2022-08-29T15:03:41.865Z,24.85
2022-08-29T15:06:49.923Z,25.01
2022-08-29T15:09:57.221Z,25.09
2022-08-29T15:13:05.449Z,25.16
2022-08-29T15:16:13.721Z,25.24
2022-08-29T15:22:26.622Z,25.30
2022-08-29T15:25:34.630Z,25.10
2022-08-29T15:28:41.902Z,24.92
2022-08-29T15:31:50.036Z,24.88
2022-08-29T15:34:57.885Z,24.90
2022-08-29T15:38:05.804Z,24.91
2022-08-29T15:41:14.090Z,24.85
2022-08-29T15:44:21.980Z,24.64
2022-08-29T15:47:30.022Z,24.49
2022-08-29T15:50:38.403Z,24.41
2022-08-29T15:53:46.225Z,24.32
2022-08-29T15:56:53.955Z,24.17
2022-08-29T16:00:01.572Z,24.02
2022-08-29T16:03:10.061Z,23.94
2022-08-29T16:06:17.739Z,23.89
2022-08-29T16:09:25.515Z,23.90
2022-08-29T16:12:33.701Z,23.85
2022-08-29T16:15:41.674Z,23.77
2022-08-29T16:18:49.024Z,23.68
2022-08-29T16:21:56.875Z,23.64
2022-08-29T16:25:04.396Z,23.62
2022-08-29T16:28:12.546Z,23.61
2022-08-29T16:31:20.649Z,23.60
2022-08-29T16:34:28.180Z,23.55
2022-08-29T16:37:36.562Z,23.60
2022-08-29T16:40:44.152Z,23.65
2022-08-29T16:43:51.883Z,23.65
2022-08-29T16:47:00.054Z,23.55
2022-08-29T16:50:07.796Z,23.46
2022-08-29T16:53:16.027Z,23.42
2022-08-29T16:56:24.068Z,23.34
2022-08-29T16:59:32.029Z,23.29
2022-08-29T17:02:40.705Z,23.19
2022-08-29T17:05:48.811Z,22.99
2022-08-29T17:08:56.362Z,22.90
2022-08-29T17:12:04.145Z,22.87
2022-08-29T17:15:12.039Z,22.90
2022-08-29T17:18:19.712Z,22.90
2022-08-29T17:21:27.205Z,22.86
2022-08-29T17:24:34.630Z,22.78
2022-08-29T17:27:51.384Z,22.67
2022-08-29T17:30:47.615Z,22.49
2022-08-29T17:33:55.472Z,22.39
2022-08-29T17:37:03.336Z,22.39
2022-08-29T17:40:11.471Z,22.35
2022-08-29T17:43:19.317Z,22.28
2022-08-29T17:46:26.724Z,22.17
2022-08-29T17:49:34.348Z,22.07
2022-08-29T17:52:42.560Z,21.99
2022-08-29T17:55:50.342Z,21.92
2022-08-29T17:58:58.101Z,21.90
2022-08-29T18:02:06.294Z,21.88
2022-08-29T18:05:14.074Z,21.79
2022-08-29T18:08:21.837Z,21.79
2022-08-29T18:11:29.907Z,21.75
2022-08-29T18:14:37.269Z,21.66
2022-08-29T18:17:45.436Z,21.53
2022-08-29T18:20:53.548Z,21.36
2022-08-29T18:24:00.875Z,21.24
2022-08-29T18:27:09.033Z,21.14
2022-08-29T18:30:17.113Z,21.02
2022-08-29T18:33:28.488Z,20.90
2022-08-29T18:36:29.947Z,20.77
2022-08-29T18:39:38.097Z,20.68
2022-08-29T18:42:45.389Z,20.59
2022-08-29T18:45:53.466Z,20.50
2022-08-29T18:49:00.838Z,20.43
2022-08-29T18:52:08.931Z,20.43
2022-08-29T18:55:17.222Z,20.58
2022-08-29T18:58:24.702Z,20.71
2022-08-29T19:01:32.842Z,20.79
2022-08-29T19:04:40.956Z,20.77
2022-08-29T19:07:48.925Z,20.76
2022-08-29T19:10:56.818Z,20.68
2022-08-29T19:14:04.337Z,20.61
2022-08-29T19:17:13.219Z,20.50
2022-08-29T19:20:21.092Z,20.43
2022-08-29T19:23:28.983Z,20.31
2022-08-29T19:26:37.441Z,20.24
2022-08-29T19:29:45.092Z,20.16
2022-08-29T19:32:46.703Z,20.08
2022-08-29T19:35:54.167Z,19.91
2022-08-29T19:39:01.687Z,19.80
2022-08-29T19:42:09.879Z,19.72
2022-08-29T19:45:13.290Z,19.66
2022-08-29T19:48:21.131Z,19.60
2022-08-29T19:51:30.163Z,19.53
2022-08-29T19:54:38.577Z,19.46
2022-08-29T19:57:47.346Z,19.40
2022-08-29T20:00:55.557Z,19.31
2022-08-29T20:04:03.555Z,19.21
2022-08-29T20:07:11.275Z,19.15
2022-08-29T20:10:21.134Z,19.06
2022-08-29T20:13:35.229Z,18.94
2022-08-29T20:16:33.257Z,18.87
2022-08-29T20:19:41.070Z,18.83
2022-08-29T20:22:48.392Z,18.82
2022-08-29T20:25:56.493Z,18.74
2022-08-29T20:29:03.893Z,18.70
2022-08-29T20:32:11.413Z,18.52
2022-08-29T20:35:19.626Z,18.36
2022-08-29T20:38:26.970Z,18.28
2022-08-29T20:41:35.109Z,18.17
2022-08-29T20:44:43.152Z,18.06
2022-08-29T20:47:50.580Z,17.97
2022-08-29T20:50:58.711Z,17.91
2022-08-29T20:54:06.932Z,17.91
2022-08-29T20:57:14.976Z,17.84
2022-08-29T21:00:22.653Z,17.76
2022-08-29T21:03:30.375Z,17.69
2022-08-29T21:06:38.356Z,17.63
2022-08-29T21:09:46.416Z,17.55
2022-08-29T21:12:54.089Z,17.53
2022-08-29T21:16:01.959Z,17.47
2022-08-29T21:19:09.839Z,17.35
2022-08-29T21:22:19.755Z,17.29
2022-08-29T21:25:19.919Z,17.23
2022-08-29T21:28:27.753Z,17.20
2022-08-29T21:31:36.016Z,17.15
2022-08-29T21:34:43.741Z,17.11
2022-08-29T21:37:51.404Z,17.13
2022-08-29T21:40:59.536Z,17.10
2022-08-29T21:44:07.157Z,17.04
2022-08-29T21:47:17.751Z,16.96
2022-08-29T21:50:15.630Z,16.89
2022-08-29T21:53:22.967Z,16.83
2022-08-29T21:56:31.241Z,16.78
2022-08-29T21:59:39.043Z,16.77
2022-08-29T22:02:46.453Z,16.71
2022-08-29T22:05:54.683Z,16.70
2022-08-29T22:09:02.364Z,16.67
2022-08-29T22:12:10.156Z,16.60
2022-08-29T22:15:17.997Z,16.59
2022-08-29T22:18:25.347Z,16.59
2022-08-29T22:21:33.650Z,16.60
2022-08-29T22:24:41.740Z,16.58
2022-08-29T22:27:49.148Z,16.59
2022-08-29T22:30:57.445Z,16.58
2022-08-29T22:34:05.582Z,16.49
2022-08-29T22:37:12.912Z,16.41
2022-08-29T22:40:21.066Z,16.37
2022-08-29T22:43:28.853Z,16.30
2022-08-29T22:46:36.514Z,16.30
2022-08-29T22:49:44.393Z,16.27
2022-08-29T22:52:52.286Z,16.27
2022-08-29T22:55:59.918Z,16.25
2022-08-29T22:59:07.840Z,16.16
2022-08-29T23:02:16.293Z,16.11
2022-08-29T23:05:24.070Z,16.11
2022-08-29T23:08:31.970Z,16.06
2022-08-29T23:11:40.081Z,15.88
2022-08-29T23:14:47.821Z,15.72
2022-08-29T23:17:55.111Z,15.59
2022-08-29T23:21:04.924Z,15.48
2022-08-29T23:24:12.245Z,15.39
2022-08-29T23:27:20.556Z,15.31
2022-08-29T23:30:28.855Z,15.30
2022-08-29T23:33:36.227Z,15.30
2022-08-29T23:36:44.326Z,15.20
2022-08-29T23:39:52.361Z,15.11
2022-08-29T23:42:59.740Z,15.03
2022-08-29T23:46:08.011Z,15.01
2022-08-29T23:49:15.724Z,14.99
2022-08-29T23:52:23.133Z,14.95
2022-08-29T23:55:31.275Z,14.84
2022-08-29T23:58:39.094Z,14.74
